Overview Statistics Trail Chart Weather Telemetry Raw packets
 

This is the latest recevied weather packets stored in our database for station/object DL2AKT-20. If no packets are shown the sender has not sent any weather packets the latest 10 day(s).

<< 42 43 44 45 >>
Time Temp. Humidity Pressure Rain* Wind** Luminosity Snow
1777202369 16.67° C 32% 1027.4 hPa - - - -
1777201469 17.78° C 29% 1027.5 hPa - - - -
1777200569 16.67° C 32% 1027.6 hPa - - - -
1777199669 16.67° C 34% 1027.6 hPa - - - -
1777198768 16.67° C 31% 1027.4 hPa - - - -
1777197868 16.67° C 35% 1027.4 hPa - - - -
1777196968 16.11° C 32% 1027.5 hPa - - - -
1777196068 15.56° C 35% 1027.4 hPa - - - -
1777195168 15° C 35% 1027.4 hPa - - - -
1777194268 13.89° C 38% 1027.5 hPa - - - -
1777193368 13.33° C 41% 1027.5 hPa - - - -
1777192467 13.33° C 41% 1027.4 hPa - - - -
1777191567 12.22° C 41% 1027.4 hPa - - - -
1777190666 11.67° C 42% 1027.4 hPa - - - -
1777189766 11.11° C 43% 1027.3 hPa - - - -
1777188866 11.11° C 44% 1027.2 hPa - - - -
1777187966 10° C 45% 1027.2 hPa - - - -
1777187066 9.44° C 46% 1027.1 hPa - - - -
1777186169 9.44° C 46% 1027 hPa - - - -
1777185269 9.44° C 46% 1026.9 hPa - - - -
1777184369 9.44° C 46% 1026.7 hPa - - - -
1777183469 10° C 45% 1026.5 hPa - - - -
1777182569 10° C 46% 1026.5 hPa - - - -
1777181669 8.33° C 49% 1026.3 hPa - - - -

* Rain since midnight (hover to see other rain measurements)
** Current wind speed in m/s (hover to see current wind gust speed)